createdAt,value
2022-09-20T00:01:09.036Z,0.63
2022-09-20T00:03:37.525Z,0.40
2022-09-20T00:06:06.065Z,0.45
2022-09-20T00:08:32.870Z,0.52
2022-09-20T00:11:07.687Z,0.40
2022-09-20T00:13:35.176Z,0.40
2022-09-20T00:16:06.566Z,0.30
2022-09-20T00:18:33.056Z,0.47
2022-09-20T00:20:59.537Z,0.30
2022-09-20T00:23:26.014Z,0.43
2022-09-20T00:25:57.743Z,0.40
2022-09-20T00:28:24.945Z,0.30
2022-09-20T00:30:53.004Z,0.40
2022-09-20T00:33:20.204Z,0.47
2022-09-20T00:35:47.247Z,0.35
2022-09-20T00:38:14.619Z,0.32
2022-09-20T00:40:42.763Z,0.20
2022-09-20T00:43:17.068Z,0.40
2022-09-20T00:45:48.785Z,0.30
2022-09-20T00:48:25.317Z,0.20
2022-09-20T00:50:57.863Z,0.35
2022-09-20T00:53:31.965Z,0.30
2022-09-20T00:56:03.890Z,0.30
2022-09-20T00:58:36.181Z,0.28
2022-09-20T01:01:05.558Z,0.32
2022-09-20T01:03:36.469Z,0.30
2022-09-20T01:06:06.959Z,0.43
2022-09-20T01:08:35.166Z,0.30
2022-09-20T01:11:02.437Z,0.40
2022-09-20T01:13:28.917Z,0.50
2022-09-20T01:15:58.995Z,0.40
2022-09-20T01:18:27.309Z,0.60
2022-09-20T01:20:54.729Z,0.40
2022-09-20T01:23:33.344Z,0.60
2022-09-20T01:26:12.045Z,0.40
2022-09-20T01:28:42.290Z,0.50
2022-09-20T01:31:23.993Z,0.47
2022-09-20T01:33:56.012Z,0.20
2022-09-20T01:36:42.982Z,0.40
2022-09-20T01:39:32.639Z,0.40
2022-09-20T01:42:05.520Z,0.35
2022-09-20T01:44:46.293Z,0.30
2022-09-20T01:47:42.973Z,0.40
2022-09-20T01:50:25.720Z,0.50
2022-09-20T01:53:16.574Z,0.38
2022-09-20T01:56:10.992Z,0.40
2022-09-20T01:59:07.150Z,0.67
2022-09-20T02:01:49.970Z,0.30
2022-09-20T02:04:41.147Z,0.38
2022-09-20T02:07:13.834Z,0.40
2022-09-20T02:09:54.769Z,0.60
2022-09-20T02:12:56.786Z,0.40
2022-09-20T02:15:32.285Z,0.30
2022-09-20T02:18:32.900Z,0.50
2022-09-20T02:21:35.515Z,0.45
2022-09-20T02:24:28.548Z,0.40
2022-09-20T02:27:07.099Z,0.33
2022-09-20T02:29:58.267Z,0.30
2022-09-20T02:32:43.565Z,0.88
2022-09-20T02:35:32.479Z,0.60
2022-09-20T02:38:18.080Z,0.43
2022-09-20T02:41:06.337Z,0.63
2022-09-20T02:43:44.756Z,0.95
2022-09-20T02:46:36.653Z,0.40
2022-09-20T02:49:17.026Z,0.40
2022-09-20T02:51:53.734Z,0.85
2022-09-20T02:54:25.926Z,0.30
2022-09-20T02:57:00.588Z,0.80
2022-09-20T02:59:34.110Z,0.50
2022-09-20T03:02:06.419Z,0.50
2022-09-20T03:04:52.828Z,0.60
2022-09-20T03:07:34.161Z,0.50
2022-09-20T03:10:00.492Z,1.05
2022-09-20T03:12:54.032Z,0.60
2022-09-20T03:16:01.573Z,0.75
2022-09-20T03:18:46.825Z,0.40
2022-09-20T03:21:29.185Z,0.50
2022-09-20T03:24:08.985Z,0.50
2022-09-20T03:27:04.766Z,0.85
2022-09-20T03:29:31.154Z,0.43
2022-09-20T03:32:16.564Z,0.45
2022-09-20T03:34:53.934Z,1.10
2022-09-20T03:37:25.976Z,0.60
2022-09-20T03:39:52.713Z,0.68
2022-09-20T03:42:24.774Z,0.50
2022-09-20T03:45:15.843Z,0.70
2022-09-20T03:48:05.636Z,0.60
2022-09-20T03:50:54.180Z,0.70
2022-09-20T03:53:32.334Z,0.70
2022-09-20T03:56:18.757Z,0.60
2022-09-20T03:59:22.755Z,0.60
2022-09-20T04:02:12.312Z,0.70
2022-09-20T04:04:52.750Z,0.50
2022-09-20T04:07:43.794Z,0.65
2022-09-20T04:10:30.613Z,0.57
2022-09-20T04:13:21.868Z,0.60
2022-09-20T04:16:17.443Z,0.60
2022-09-20T04:18:56.504Z,0.55
2022-09-20T04:21:32.552Z,0.57
2022-09-20T04:24:23.544Z,0.73
2022-09-20T04:27:00.708Z,0.68
2022-09-20T04:29:28.039Z,0.70
2022-09-20T04:32:04.502Z,0.68
2022-09-20T04:35:04.496Z,1.10
2022-09-20T04:37:34.235Z,1.00
2022-09-20T04:40:26.235Z,0.60
2022-09-20T04:43:01.757Z,0.63
2022-09-20T04:45:51.380Z,0.65
2022-09-20T04:48:51.548Z,0.77
2022-09-20T04:51:36.466Z,0.80
2022-09-20T04:54:24.957Z,0.80
2022-09-20T04:57:19.428Z,0.70
2022-09-20T05:00:08.566Z,1.10
2022-09-20T05:03:12.921Z,0.90
2022-09-20T05:06:24.740Z,0.93
2022-09-20T05:09:07.738Z,0.88
2022-09-20T05:11:54.185Z,0.80
2022-09-20T05:14:45.161Z,0.80
2022-09-20T05:17:44.757Z,0.70
2022-09-20T05:20:42.653Z,0.77
2022-09-20T05:23:36.474Z,0.70
2022-09-20T05:26:35.782Z,0.80
2022-09-20T05:29:18.627Z,0.95
2022-09-20T05:32:10.519Z,0.70
2022-09-20T05:34:52.569Z,0.70
2022-09-20T05:37:46.967Z,0.63
2022-09-20T05:40:32.384Z,1.17
2022-09-20T05:43:30.790Z,1.13
2022-09-20T05:46:03.141Z,0.60
2022-09-20T05:48:43.300Z,0.88
2022-09-20T05:51:29.268Z,1.00
2022-09-20T05:54:17.420Z,0.70
2022-09-20T05:56:56.151Z,1.27
2022-09-20T05:59:56.317Z,0.70
2022-09-20T06:02:33.865Z,0.75
2022-09-20T06:05:15.858Z,1.20
2022-09-20T06:08:03.794Z,1.00
2022-09-20T06:10:43.485Z,1.40
2022-09-20T06:13:30.154Z,1.10
2022-09-20T06:16:02.385Z,0.90
2022-09-20T06:18:43.261Z,1.00
2022-09-20T06:21:33.705Z,1.03
2022-09-20T06:24:01.341Z,1.23
2022-09-20T06:26:36.860Z,0.80
2022-09-20T06:29:07.306Z,1.10
2022-09-20T06:31:33.857Z,1.13
2022-09-20T06:34:03.249Z,0.93
2022-09-20T06:36:53.978Z,1.15
2022-09-20T06:39:48.053Z,1.10
2022-09-20T06:42:14.500Z,1.00
2022-09-20T06:44:43.200Z,1.02
2022-09-20T06:47:15.559Z,1.30
2022-09-20T06:49:46.737Z,1.17
2022-09-20T06:52:18.691Z,1.30
2022-09-20T06:54:46.954Z,0.55
2022-09-20T06:57:17.617Z,0.90
2022-09-20T06:59:44.367Z,0.80
2022-09-20T07:02:10.995Z,0.57
2022-09-20T07:04:37.849Z,0.93
2022-09-20T07:07:09.240Z,0.43
2022-09-20T07:09:36.264Z,0.85
2022-09-20T07:12:03.121Z,1.00
2022-09-20T07:14:29.644Z,0.77
2022-09-20T07:16:56.072Z,0.70
2022-09-20T07:19:23.358Z,1.17
2022-09-20T07:21:49.904Z,0.93
2022-09-20T07:24:16.367Z,1.07
2022-09-20T07:26:56.222Z,0.75
2022-09-20T07:29:22.997Z,0.88
2022-09-20T07:31:50.808Z,0.60
2022-09-20T07:34:20.166Z,0.80
2022-09-20T07:36:47.802Z,1.00
2022-09-20T07:39:14.587Z,0.60
2022-09-20T07:41:41.082Z,0.98
2022-09-20T07:44:24.913Z,0.50
2022-09-20T07:46:57.921Z,0.50
2022-09-20T07:49:26.174Z,0.83
2022-09-20T07:51:53.618Z,0.45
2022-09-20T07:54:20.841Z,0.40
2022-09-20T07:56:48.069Z,0.38
2022-09-20T07:59:15.249Z,0.25
2022-09-20T08:01:42.468Z,0.30
2022-09-20T08:04:10.197Z,0.35
2022-09-20T08:06:42.604Z,0.20
2022-09-20T08:09:11.298Z,0.22
2022-09-20T08:11:40.797Z,0.20
2022-09-20T08:14:09.148Z,0.23
2022-09-20T08:16:41.112Z,0.20
2022-09-20T08:19:08.652Z,0.20
2022-09-20T08:21:37.921Z,0.20
2022-09-20T08:24:04.616Z,0.47
2022-09-20T08:26:31.612Z,0.50
2022-09-20T08:28:59.654Z,0.30
2022-09-20T08:31:28.201Z,0.32
2022-09-20T08:33:54.776Z,0.40
2022-09-20T08:36:26.060Z,0.25
2022-09-20T08:41:51.262Z,0.30
2022-09-20T08:44:35.146Z,0.28
2022-09-20T08:47:14.159Z,0.40
2022-09-20T08:49:45.757Z,0.52
2022-09-20T08:52:19.373Z,0.23
2022-09-20T08:54:46.728Z,0.30
2022-09-20T08:57:17.306Z,0.40
2022-09-20T08:59:44.681Z,0.25
2022-09-20T09:02:17.501Z,0.20
2022-09-20T09:04:45.239Z,0.20
2022-09-20T09:07:15.010Z,0.30
2022-09-20T09:09:46.552Z,0.30
2022-09-20T09:12:29.248Z,0.30
2022-09-20T09:15:02.477Z,0.30
2022-09-20T09:17:30.315Z,0.30
2022-09-20T09:19:59.695Z,0.40
2022-09-20T09:22:40.031Z,0.30
2022-09-20T09:25:22.523Z,0.30
2022-09-20T09:27:58.353Z,0.28
2022-09-20T09:30:31.316Z,0.30
2022-09-20T09:33:19.717Z,0.30
2022-09-20T09:36:15.277Z,0.20
2022-09-20T09:38:47.609Z,0.30
2022-09-20T09:41:32.931Z,0.20
2022-09-20T09:44:09.618Z,0.40
2022-09-20T09:46:38.488Z,0.15
2022-09-20T09:49:18.213Z,0.20
2022-09-20T09:52:15.381Z,0.20
2022-09-20T09:54:51.761Z,0.30
2022-09-20T09:57:43.107Z,0.20
2022-09-20T10:00:20.651Z,0.50
2022-09-20T10:03:31.989Z,0.20
2022-09-20T10:06:43.745Z,0.55
2022-09-20T10:09:36.569Z,0.30
2022-09-20T10:12:17.707Z,0.20
2022-09-20T10:15:21.221Z,0.30
2022-09-20T10:18:07.287Z,0.43
2022-09-20T10:21:07.811Z,0.20
2022-09-20T10:24:03.173Z,0.20
2022-09-20T10:26:50.998Z,0.20
2022-09-20T10:29:27.500Z,0.17
2022-09-20T10:32:17.420Z,0.25
2022-09-20T10:35:21.288Z,0.20
2022-09-20T10:37:54.942Z,0.25
2022-09-20T10:40:53.660Z,0.30
2022-09-20T10:43:36.660Z,0.20
2022-09-20T10:46:31.946Z,1.05
2022-09-20T10:49:28.827Z,0.20
2022-09-20T10:52:16.899Z,0.20
2022-09-20T10:55:13.201Z,0.20
2022-09-20T10:58:30.468Z,0.40
2022-09-20T11:01:36.936Z,0.15
2022-09-20T11:04:32.325Z,0.10
2022-09-20T11:07:17.458Z,0.20
2022-09-20T11:09:51.879Z,0.83
2022-09-20T11:12:27.451Z,0.25
2022-09-20T11:15:26.213Z,0.30
2022-09-20T11:18:11.087Z,0.25
2022-09-20T11:20:44.197Z,0.25
2022-09-20T11:23:17.117Z,0.20
2022-09-20T11:25:51.644Z,0.20
2022-09-20T11:28:38.886Z,0.20
2022-09-20T11:31:18.026Z,0.20
2022-09-20T11:33:52.276Z,0.20
2022-09-20T11:36:34.237Z,0.20
2022-09-20T11:39:05.188Z,0.22
2022-09-20T11:41:32.180Z,0.22
2022-09-20T11:44:07.747Z,0.20
2022-09-20T11:46:40.401Z,0.20
2022-09-20T11:49:15.758Z,0.30
2022-09-20T11:52:13.078Z,0.55
2022-09-20T11:54:57.740Z,0.38
2022-09-20T11:57:24.877Z,0.20
2022-09-20T12:00:03.314Z,0.20
2022-09-20T12:02:45.111Z,0.30
2022-09-20T12:05:30.420Z,0.40
2022-09-20T12:07:59.700Z,0.17
2022-09-20T12:10:34.652Z,0.38
2022-09-20T12:13:05.587Z,0.17
2022-09-20T12:15:40.113Z,0.20
2022-09-20T12:18:09.376Z,0.20
2022-09-20T12:20:36.173Z,0.40
2022-09-20T12:23:40.274Z,0.20
2022-09-20T12:26:18.713Z,0.22
2022-09-20T12:28:50.478Z,0.20
2022-09-20T12:31:25.882Z,0.30
2022-09-20T12:33:59.140Z,0.20
2022-09-20T12:36:28.571Z,0.20
2022-09-20T12:39:02.270Z,0.20
2022-09-20T12:41:46.304Z,0.27
2022-09-20T12:44:50.018Z,0.20
2022-09-20T12:47:22.596Z,0.50
2022-09-20T12:50:07.413Z,0.20
2022-09-20T12:52:58.777Z,0.40
2022-09-20T12:55:45.461Z,0.80
2022-09-20T12:58:13.391Z,0.20
2022-09-20T13:00:59.279Z,0.30
2022-09-20T13:03:29.159Z,0.20
2022-09-20T13:06:05.530Z,0.43
2022-09-20T13:08:42.886Z,0.20
2022-09-20T13:11:20.105Z,0.20
2022-09-20T13:13:50.503Z,0.20
2022-09-20T13:16:37.192Z,0.40
2022-09-20T13:19:09.663Z,0.30
2022-09-20T13:21:42.268Z,0.60
2022-09-20T13:24:16.218Z,0.25
2022-09-20T13:26:46.089Z,0.20
2022-09-20T13:29:35.276Z,0.20
2022-09-20T13:32:26.237Z,0.35
2022-09-20T13:35:21.517Z,0.30
2022-09-20T13:37:50.622Z,0.32
2022-09-20T13:40:24.033Z,0.40
2022-09-20T13:43:12.895Z,0.30
2022-09-20T13:45:42.523Z,0.40
2022-09-20T13:48:09.356Z,0.20
2022-09-20T13:50:40.049Z,0.30
2022-09-20T13:53:33.542Z,0.30
2022-09-20T13:56:14.067Z,0.30
2022-09-20T13:58:40.844Z,0.63
2022-09-20T14:01:40.027Z,0.50
2022-09-20T14:04:21.286Z,0.20
2022-09-20T14:06:49.192Z,0.40
2022-09-20T14:09:38.877Z,0.50
2022-09-20T14:12:06.516Z,0.30
2022-09-20T14:14:35.037Z,0.40
2022-09-20T14:17:05.451Z,0.25
2022-09-20T14:19:37.279Z,0.30
2022-09-20T14:22:05.197Z,0.20
2022-09-20T14:24:37.161Z,0.28
2022-09-20T14:27:17.118Z,0.30
2022-09-20T14:29:49.265Z,0.30
2022-09-20T14:32:18.330Z,0.30
2022-09-20T14:34:46.556Z,0.20
2022-09-20T14:37:27.272Z,0.20
2022-09-20T14:39:56.546Z,0.20
2022-09-20T14:42:28.655Z,0.50
2022-09-20T14:44:55.305Z,0.30
2022-09-20T14:47:54.245Z,0.25
2022-09-20T14:50:23.771Z,0.38
2022-09-20T14:53:13.380Z,0.40
2022-09-20T14:55:54.527Z,0.30
2022-09-20T14:58:20.989Z,0.30
2022-09-20T15:00:51.659Z,0.20
2022-09-20T15:03:25.666Z,0.30
2022-09-20T15:05:52.162Z,0.43
2022-09-20T15:08:20.494Z,0.30
2022-09-20T15:10:47.761Z,0.30
2022-09-20T15:13:14.780Z,0.30
2022-09-20T15:15:42.106Z,0.30
2022-09-20T15:18:26.642Z,0.47
2022-09-20T15:20:55.032Z,0.40
2022-09-20T15:23:21.914Z,0.40
2022-09-20T15:25:51.303Z,0.50
2022-09-20T15:28:18.668Z,0.40
2022-09-20T15:30:47.232Z,0.43
2022-09-20T15:33:14.537Z,0.40
2022-09-20T15:35:42.392Z,1.00
2022-09-20T15:38:11.613Z,0.70
2022-09-20T15:40:49.119Z,0.50
2022-09-20T15:43:21.481Z,0.43
2022-09-20T15:46:00.619Z,0.70
2022-09-20T15:48:29.893Z,1.25
2022-09-20T15:51:11.302Z,0.50
2022-09-20T15:53:38.733Z,0.50
2022-09-20T15:56:15.468Z,0.73
2022-09-20T15:58:48.494Z,0.63
2022-09-20T16:01:19.494Z,0.40
2022-09-20T16:03:46.595Z,0.40
2022-09-20T16:06:13.713Z,0.50
2022-09-20T16:08:42.507Z,0.30
2022-09-20T16:11:13.319Z,0.40
2022-09-20T16:43:41.294Z,0.40
2022-09-20T16:46:08.143Z,0.40
2022-09-20T16:54:59.907Z,1.30
2022-09-20T16:57:26.430Z,0.52
2022-09-20T16:59:55.686Z,0.40
2022-09-20T17:02:22.185Z,0.55
2022-09-20T17:04:48.746Z,0.30
2022-09-20T17:07:15.251Z,0.40
2022-09-20T17:09:41.661Z,0.45
2022-09-20T17:12:10.005Z,0.50
2022-09-20T17:14:37.082Z,0.30
2022-09-20T17:17:03.699Z,0.47
2022-09-20T17:19:30.319Z,0.22
2022-09-20T17:21:56.723Z,0.30
2022-09-20T17:24:23.728Z,0.50
2022-09-20T17:26:51.021Z,0.40
2022-09-20T17:29:18.666Z,0.38
2022-09-20T17:31:53.238Z,0.40
2022-09-20T17:34:21.612Z,0.30
2022-09-20T17:36:49.053Z,0.53
2022-09-20T17:39:16.675Z,0.57
2022-09-20T17:41:48.127Z,0.40
2022-09-20T17:44:15.658Z,0.40
2022-09-20T17:46:44.815Z,0.55
2022-09-20T17:49:13.686Z,0.33
2022-09-20T17:51:44.146Z,0.28
2022-09-20T17:54:14.946Z,0.40
2022-09-20T17:56:47.346Z,0.20
2022-09-20T17:59:18.050Z,0.30
2022-09-20T18:01:47.292Z,0.30
2022-09-20T18:04:14.325Z,0.38
2022-09-20T18:06:45.617Z,0.40
2022-09-20T18:09:15.448Z,0.70
2022-09-20T18:11:46.423Z,0.30
2022-09-20T18:14:13.691Z,0.23
2022-09-20T18:16:40.952Z,0.20
2022-09-20T18:19:08.679Z,0.30
2022-09-20T18:21:36.947Z,0.35
2022-09-20T18:24:07.973Z,0.35
2022-09-20T18:26:37.531Z,0.33
2022-09-20T18:29:12.142Z,0.50
2022-09-20T18:31:45.344Z,0.75
2022-09-20T18:34:17.683Z,0.40
2022-09-20T18:36:53.475Z,0.60
2022-09-20T18:39:24.006Z,0.70
2022-09-20T18:41:56.243Z,1.48
2022-09-20T18:44:23.637Z,1.90
2022-09-20T18:46:53.446Z,2.10
2022-09-20T18:49:22.708Z,0.50
2022-09-20T18:51:57.364Z,0.47
2022-09-20T18:54:24.005Z,0.32
2022-09-20T18:56:51.394Z,0.68
2022-09-20T18:59:26.768Z,0.40
2022-09-20T19:02:32.887Z,0.50
2022-09-20T19:05:20.638Z,0.40
2022-09-20T19:08:24.185Z,0.40
2022-09-20T19:10:58.633Z,0.40
2022-09-20T19:13:48.914Z,0.40
2022-09-20T19:16:31.162Z,0.60
2022-09-20T19:19:15.964Z,0.50
2022-09-20T19:22:31.124Z,0.88
2022-09-20T19:25:12.465Z,0.57
2022-09-20T19:27:39.277Z,0.82
2022-09-20T19:30:06.472Z,1.42
2022-09-20T19:32:34.583Z,1.97
2022-09-20T19:35:01.733Z,2.78
2022-09-20T19:37:41.914Z,2.30
2022-09-20T19:40:35.603Z,2.67
2022-09-20T19:43:16.301Z,3.03
2022-09-20T19:45:52.266Z,1.83
2022-09-20T19:48:26.828Z,2.38
2022-09-20T19:50:53.806Z,1.55
2022-09-20T19:53:24.192Z,1.70
2022-09-20T19:55:59.417Z,1.85
2022-09-20T19:58:26.059Z,1.33
2022-09-20T20:00:53.402Z,1.20
2022-09-20T20:03:23.639Z,1.20
2022-09-20T20:06:07.944Z,0.70
2022-09-20T20:08:45.789Z,0.95
2022-09-20T20:11:18.194Z,1.73
2022-09-20T20:14:16.069Z,2.20
2022-09-20T20:16:54.660Z,2.30
2022-09-20T20:19:37.712Z,1.60
2022-09-20T20:22:41.885Z,1.40
2022-09-20T20:25:34.504Z,0.80
2022-09-20T20:28:01.092Z,1.30
2022-09-20T20:30:27.568Z,1.08
2022-09-20T20:33:00.575Z,1.00
2022-09-20T20:35:27.067Z,0.82
2022-09-20T20:37:53.779Z,0.83
2022-09-20T20:40:20.483Z,0.68
2022-09-20T20:42:47.884Z,0.70
2022-09-20T20:45:14.436Z,1.02
2022-09-20T20:47:42.580Z,1.58
2022-09-20T20:50:11.904Z,2.37
2022-09-20T20:52:38.636Z,2.75
2022-09-20T20:55:06.457Z,1.90
2022-09-20T20:57:34.216Z,2.30
2022-09-20T21:00:00.762Z,1.70
2022-09-20T21:02:27.372Z,1.30
2022-09-20T21:04:53.884Z,0.85
2022-09-20T21:07:20.352Z,1.10
2022-09-20T21:09:46.868Z,0.90
2022-09-20T21:12:14.585Z,1.02
2022-09-20T21:14:41.057Z,1.40
2022-09-20T21:17:07.833Z,0.82
2022-09-20T21:19:34.338Z,1.10
2022-09-20T21:22:00.871Z,0.60
2022-09-20T21:24:27.407Z,0.77
2022-09-20T21:26:53.860Z,0.63
2022-09-20T21:29:20.833Z,0.70
2022-09-20T21:31:47.421Z,0.60
2022-09-20T21:34:15.625Z,0.60
2022-09-20T21:36:43.953Z,0.70
2022-09-20T21:39:11.278Z,0.53
2022-09-20T21:41:39.481Z,0.60
2022-09-20T21:44:07.689Z,0.63
2022-09-20T21:46:42.024Z,0.57
2022-09-20T21:49:10.993Z,0.70
2022-09-20T21:51:38.833Z,0.60
2022-09-20T21:54:05.776Z,0.60
2022-09-20T21:56:34.793Z,0.50
2022-09-20T21:59:03.791Z,0.70
2022-09-20T22:01:36.307Z,0.55
2022-09-20T22:04:11.493Z,0.50
2022-09-20T22:06:42.763Z,0.68
2022-09-20T22:09:11.655Z,0.60
2022-09-20T22:11:43.546Z,0.68
2022-09-20T22:14:11.667Z,1.30
2022-09-20T22:16:40.235Z,1.40
2022-09-20T22:19:08.861Z,1.40
2022-09-20T22:21:38.305Z,1.73
2022-09-20T22:24:07.911Z,1.30
2022-09-20T22:26:37.180Z,1.23
2022-09-20T22:29:05.112Z,1.30
2022-09-20T22:31:33.578Z,0.68
2022-09-20T22:34:02.306Z,1.10
2022-09-20T22:36:34.522Z,0.90
2022-09-20T22:39:01.665Z,0.98
2022-09-20T22:41:28.793Z,0.60
2022-09-20T22:43:55.581Z,1.25
2022-09-20T22:46:24.774Z,1.27
2022-09-20T22:48:51.494Z,0.80
2022-09-20T22:51:20.716Z,0.80
2022-09-20T22:53:48.568Z,0.90
2022-09-20T22:56:18.770Z,0.75
2022-09-20T22:58:48.729Z,0.90
2022-09-20T23:01:29.321Z,0.50
2022-09-20T23:04:03.271Z,0.90
2022-09-20T23:06:36.215Z,0.70
2022-09-20T23:09:04.903Z,0.82
2022-09-20T23:11:31.605Z,0.70
2022-09-20T23:14:01.518Z,0.43
2022-09-20T23:16:30.816Z,0.50
2022-09-20T23:18:59.183Z,0.43
2022-09-20T23:21:26.548Z,0.50
2022-09-20T23:23:55.240Z,0.60
2022-09-20T23:26:23.372Z,0.50
2022-09-20T23:29:01.407Z,0.68
2022-09-20T23:31:29.018Z,0.40
2022-09-20T23:33:58.822Z,0.47
2022-09-20T23:36:28.432Z,0.45
2022-09-20T23:38:57.034Z,0.63
2022-09-20T23:41:26.201Z,0.50
2022-09-20T23:43:53.419Z,0.67
2022-09-20T23:46:21.870Z,0.70
2022-09-20T23:48:50.308Z,0.40
2022-09-20T23:51:19.907Z,0.70
2022-09-20T23:53:46.792Z,0.60
2022-09-20T23:56:14.518Z,0.40
2022-09-20T23:58:43.165Z,0.40
